Terminal Aerodrome Forecast
Issued by NWS Missoula, MT

Home | Current Version | Previous Version | Text Only | Print | Product List | Glossary On
Versions: 1 2 3 4 5 6 7 8 9 10 11 12 13 14 15 16 17 18 19 20 21 22 23 24 25 26 27 28 29 30
000
FTUS45 KMSO 212339
TAFMSO
TAF
KMSO 212339Z 2200/2224 29006KT P6SM -SHRA SCT040 BKN050 OVC080
     FM220100 VRB04KT P6SM VCSH BKN050 OVC080
     FM220300 VRB03KT P6SM -SHSN BKN030 OVC050
     FM220900 VRB05KT 5SM BR VCSH BKN040=

USA.gov is the U.S. government's official web portal to all federal, state and local government web resources and services.